Kaisei Maru — JD3114 — position and weather

sailwx.info

Track history (hours):
 
Tides and Currents Weather Stations Pressure Air Temp Water Temp Dewpoint Dewpoint Depression Visibility Wind Speed Wind Dir Waves Ship Positions

Kaisei Maru

Last reported at 2016-Jul-29 07:32 UTC. Time now 2016-Jul-29 19:48 UTC.
Position N 34°12' E 134°58'.

Length 52 m; draft 3.8 m.

Type: Tanker. MMSI: 431001837.

Date/timePositionNaut miles runAvg speedWind from/ knotsBaromVisibWave heightAir tempDewpointWater temp
2016-Jul-29 07:32N 34°12' E 134°58'8 8.6
2016-Jul-29 06:33N 34°21' E 134°60'9 9.3
2016-Jul-29 05:33N 34°28' E 135°07'1010.3
2016-Jul-29 04:33N 34°35' E 135°16'9 9.5
2016-Jul-29 03:33N 34°42' E 135°24'0 0.0
2016-Jul-29 02:33N 34°42' E 135°24'0 0.0
2016-Jul-29 01:33N 34°42' E 135°24'0 0.0
2016-Jul-29 00:33N 34°42' E 135°24'0 0.0
2016-Jul-28 23:33N 34°42' E 135°24'0 0.0
2016-Jul-28 22:33N 34°42' E 135°24'4 4.1
2016-Jul-28 21:33N 34°41' E 135°19'6 5.6
2016-Jul-28 20:33N 34°41' E 135°12'0 0.0
2016-Jul-28 19:33N 34°41' E 135°12'0 0.0
2016-Jul-28 18:33N 34°41' E 135°12'0 0.0
2016-Jul-28 17:33N 34°41' E 135°12'0 0.0
2016-Jul-28 16:33N 34°41' E 135°12'0 0.0
2016-Jul-28 15:33N 34°41' E 135°12'0 0.0
2016-Jul-28 14:33N 34°41' E 135°12'0 0.0
2016-Jul-28 13:33N 34°41' E 135°12'0 0.0
2016-Jul-28 12:33N 34°41' E 135°12'0 0.0
2016-Jul-28 11:33N 34°41' E 135°12'0 0.0
2016-Jul-28 10:33N 34°41' E 135°12'0 0.0
2016-Jul-28 09:33N 34°41' E 135°12'0 0.0
2016-Jul-28 08:33N 34°41' E 135°12'0 0.0
2016-Jul-28 07:33N 34°41' E 135°12'0 0.0
2016-Jul-28 06:33N 34°41' E 135°12'0 0.0
2016-Jul-28 05:33N 34°41' E 135°12'1 0.9
2016-Jul-28 04:33N 34°40' E 135°12'2 2.3
2016-Jul-28 03:33N 34°39' E 135°10'0 0.0
2016-Jul-28 02:33N 34°39' E 135°10'0 0.0
2016-Jul-28 01:33N 34°39' E 135°10'0 0.0
2016-Jul-28 00:33N 34°39' E 135°10'0 0.0
2016-Jul-27 23:33N 34°39' E 135°10'3 3.0
2016-Jul-27 22:33N 34°41' E 135°12'0 0.0
2016-Jul-27 21:33N 34°41' E 135°12'0 0.0
2016-Jul-27 20:33N 34°41' E 135°12'0 0.0
2016-Jul-27 19:33N 34°41' E 135°12'0 0.0
2016-Jul-27 18:33N 34°41' E 135°12'0 0.0
2016-Jul-27 17:33N 34°41' E 135°12'0 0.0
2016-Jul-27 16:33N 34°41' E 135°12'0 0.0
2016-Jul-27 15:33N 34°41' E 135°12'0 0.0
2016-Jul-27 14:33N 34°41' E 135°12'0 0.0
2016-Jul-27 13:33N 34°41' E 135°12'0 0.0
2016-Jul-27 12:33N 34°41' E 135°12'0 0.0
2016-Jul-27 11:33N 34°41' E 135°12'0 0.0
2016-Jul-27 10:33N 34°41' E 135°12'0 0.0
2016-Jul-27 09:33N 34°41' E 135°12'0 0.0
2016-Jul-27 08:33N 34°41' E 135°12'0 0.0
2016-Jul-27 07:33N 34°41' E 135°12'1 1.1
2016-Jul-27 06:33N 34°41' E 135°14'1110.8
2016-Jul-27 05:33N 34°33' E 135°23'3 2.8
2016-Jul-27 04:33N 34°31' E 135°25'0 0.0
2016-Jul-27 03:33N 34°31' E 135°25'0 0.0
2016-Jul-27 02:33N 34°31' E 135°25'0 0.0
2016-Jul-27 01:33N 34°31' E 135°25'6 5.9
2016-Jul-27 00:33N 34°34' E 135°19'9 8.6
2016-Jul-26 23:33N 34°41' E 135°13'0 0.3
2016-Jul-26 22:33N 34°41' E 135°12'0 0.0
2016-Jul-26 21:33N 34°41' E 135°12'0 0.0
2016-Jul-26 20:33N 34°41' E 135°12'0 0.0
2016-Jul-26 19:33N 34°41' E 135°12'0 0.0
2016-Jul-26 18:33N 34°41' E 135°12'0 0.0
2016-Jul-26 17:33N 34°41' E 135°12'5 4.6
2016-Jul-26 16:33N 34°40' E 135°18'0 0.0
2016-Jul-26 15:33N 34°40' E 135°18'0 0.1
2016-Jul-26 14:33N 34°40' E 135°18'0 0.1
2016-Jul-26 13:33N 34°40' E 135°18'4 3.7
2016-Jul-26 12:33N 34°41' E 135°13'1 1.0
2016-Jul-26 11:33N 34°41' E 135°12'0 0.0
2016-Jul-26 10:33N 34°41' E 135°12'0 0.0
2016-Jul-26 09:33N 34°41' E 135°12'0 0.0
2016-Jul-26 08:33N 34°41' E 135°12'0 0.0
2016-Jul-26 07:33N 34°41' E 135°12'0 0.0
2016-Jul-26 06:33N 34°41' E 135°12'0 0.0
2016-Jul-26 05:33N 34°41' E 135°12'0 0.0
2016-Jul-26 04:33N 34°41' E 135°12'0 0.0
2016-Jul-26 03:33N 34°41' E 135°12'0 0.0
2016-Jul-26 02:33N 34°41' E 135°12'0 0.0
2016-Jul-26 01:33N 34°41' E 135°12'0 0.0
2016-Jul-26 00:33N 34°41' E 135°12'0 0.0
2016-Jul-25 23:33N 34°41' E 135°12'0 0.0
2016-Jul-25 22:33N 34°41' E 135°12'0 0.0
2016-Jul-25 21:33N 34°41' E 135°12'0 0.0
2016-Jul-25 20:33N 34°41' E 135°12'0 0.0
2016-Jul-25 19:33N 34°41' E 135°12'0 0.0
2016-Jul-25 18:33N 34°41' E 135°12'0 0.0
2016-Jul-25 17:33N 34°41' E 135°12'0 0.0
2016-Jul-25 16:33N 34°41' E 135°12'0 0.0
2016-Jul-25 15:33N 34°41' E 135°12'0 0.0
2016-Jul-25 14:33N 34°41' E 135°12'0 0.0
2016-Jul-25 13:33N 34°41' E 135°12'0 0.0
2016-Jul-25 12:33N 34°41' E 135°12'0 0.0
2016-Jul-25 11:33N 34°41' E 135°12'0 0.0
2016-Jul-25 10:33N 34°41' E 135°12'0 0.0
2016-Jul-25 09:33N 34°41' E 135°12'0 0.0
2016-Jul-25 08:33N 34°41' E 135°12'0 0.0
2016-Jul-25 07:33N 34°41' E 135°12'0 0.2
2016-Jul-25 06:33N 34°41' E 135°12'9 9.3
2016-Jul-25 05:33N 34°42' E 135°24'1 0.5
2016-Jul-25 04:33N 34°42' E 135°23'0 0.0
2016-Jul-25 03:33N 34°42' E 135°23'0 0.0
2016-Jul-25 02:33N 34°42' E 135°23'1 0.5
2016-Jul-25 01:32N 34°42' E 135°24'6 5.8
2016-Jul-25 00:33N 34°42' E 135°17'0 0.0
2016-Jul-24 23:33N 34°42' E 135°17'1 1.2
2016-Jul-24 22:33N 34°42' E 135°18'0 0.0
2016-Jul-24 21:33N 34°42' E 135°18'0 0.0
2016-Jul-24 20:33N 34°42' E 135°18'0 0.0
2016-Jul-24 19:33N 34°42' E 135°18'0 0.0
2016-Jul-24 18:33N 34°42' E 135°18'0 0.0
2016-Jul-24 17:33N 34°42' E 135°18'0 0.0
2016-Jul-24 16:33N 34°42' E 135°18'0 0.1
2016-Jul-24 15:33N 34°42' E 135°18'0 0.0
2016-Jul-24 14:33N 34°42' E 135°18'0 0.0
2016-Jul-24 13:33N 34°42' E 135°18'0 0.0
2016-Jul-24 12:33N 34°42' E 135°18'2 1.8
2016-Jul-24 11:33N 34°40' E 135°19'1010.1
2016-Jul-24 10:33N 34°31' E 135°13'10 9.9
2016-Jul-24 09:33N 34°22' E 135°07'10 9.9
2016-Jul-24 08:33N 34°13' E 135°03'239 8.4
2016-Jul-23 04:09N 35°11' E 139°45'610.3
2016-Jul-23 03:33N 35°18' E 139°44'10 9.7
2016-Jul-23 02:33N 35°27' E 139°45'4 3.7
2016-Jul-23 01:33N 35°31' E 139°45'0 0.0
2016-Jul-23 00:33N 35°31' E 139°45'0 0.0
2016-Jul-22 23:33N 35°31' E 139°45'0 0.0
2016-Jul-22 22:33N 35°31' E 139°45'0 0.0
2016-Jul-22 21:33N 35°31' E 139°45'0 0.0
2016-Jul-22 20:33N 35°31' E 139°45'0 0.0
2016-Jul-22 19:33N 35°31' E 139°45'0 0.0
2016-Jul-22 18:33N 35°31' E 139°45'0 0.0
2016-Jul-22 17:33N 35°31' E 139°45'0 0.0
2016-Jul-22 16:33N 35°31' E 139°45'0 0.0
2016-Jul-22 15:33N 35°31' E 139°45'0 0.0
2016-Jul-22 14:33N 35°31' E 139°45'0 0.0
2016-Jul-22 13:33N 35°31' E 139°45'0 0.0
2016-Jul-22 12:33N 35°31' E 139°45'0 0.0
2016-Jul-22 11:33N 35°31' E 139°45'0 0.0
2016-Jul-22 10:33N 35°31' E 139°45'0 0.0
2016-Jul-22 09:33N 35°31' E 139°45'0 0.0
2016-Jul-22 08:33N 35°31' E 139°45'0 0.0
2016-Jul-22 07:33N 35°31' E 139°45'0 0.0
2016-Jul-22 05:33N 35°31' E 139°45'0 0.0
2016-Jul-22 04:33N 35°31' E 139°45'0 0.0
2016-Jul-22 03:33N 35°31' E 139°45'0 0.0
2016-Jul-22 02:33N 35°31' E 139°45'0 0.0
2016-Jul-22 01:33N 35°31' E 139°45'0 0.0
2016-Jul-22 00:33N 35°31' E 139°45'0 0.0
2016-Jul-21 23:33N 35°31' E 139°45'0 0.0
2016-Jul-21 22:33N 35°31' E 139°45'0 0.0
2016-Jul-21 21:33N 35°31' E 139°45'0 0.0
2016-Jul-21 20:33N 35°31' E 139°45'0 0.0
2016-Jul-21 19:33N 35°31' E 139°45'0 0.0
2016-Jul-21 18:33N 35°31' E 139°45'0 0.0
2016-Jul-21 17:33N 35°31' E 139°45'0 0.0
2016-Jul-21 16:33N 35°31' E 139°45'0 0.0
2016-Jul-21 15:33N 35°31' E 139°45'0 0.0
2016-Jul-21 14:33N 35°31' E 139°45'0 0.0
2016-Jul-21 13:33N 35°31' E 139°45'0 0.0
2016-Jul-21 12:33N 35°31' E 139°45'0 0.0
2016-Jul-21 11:33N 35°31' E 139°45'0 0.0
2016-Jul-21 10:33N 35°31' E 139°45'0 0.0
2016-Jul-21 09:33N 35°31' E 139°45'0 0.0
2016-Jul-21 08:33N 35°31' E 139°45'0 0.0
2016-Jul-21 07:33N 35°31' E 139°45'0 0.0
2016-Jul-21 06:33N 35°31' E 139°45'0 0.0
2016-Jul-21 05:33N 35°31' E 139°45'0 0.0
2016-Jul-21 04:33N 35°31' E 139°45'0 0.0
2016-Jul-21 03:33N 35°31' E 139°45'0 0.0
2016-Jul-21 02:33N 35°31' E 139°45'0 0.0
2016-Jul-21 01:33N 35°31' E 139°45'0 0.0
2016-Jul-21 00:33N 35°31' E 139°45'0 0.0
2016-Jul-20 23:33N 35°31' E 139°45'0 0.0
2016-Jul-20 22:33N 35°31' E 139°45'0 0.0
2016-Jul-20 21:33N 35°31' E 139°45'5 4.5
2016-Jul-20 20:33N 35°30' E 139°50'0 0.1
2016-Jul-20 19:33N 35°30' E 139°50'0 0.0
2016-Jul-20 18:33N 35°30' E 139°50'0 0.0
2016-Jul-20 17:33N 35°30' E 139°50'0 0.0
2016-Jul-20 16:33N 35°30' E 139°50'0 0.0
2016-Jul-20 15:33N 35°30' E 139°50'0 0.0
2016-Jul-20 14:33N 35°30' E 139°50'2 2.5
2016-Jul-20 13:33N 35°28' E 139°49'1010.5
2016-Jul-20 12:34N 35°19' E 139°44'1010.1
2016-Jul-20 11:33N 35°09' E 139°46'242 9.2
2016-Jul-19 09:09N 34°03' E 135°03'610.6
2016-Jul-19 08:33N 34°09' E 135°03'  
Track history (hours):
 
Tides and Currents Weather Stations Pressure Air Temp Water Temp Dewpoint Dewpoint Depression Visibility Wind Speed Wind Dir Waves Ship Positions

Kaisei Maru

Last reported at 2016-Jul-29 07:32 UTC. Time now 2016-Jul-29 19:48 UTC.
Position N 34°12' E 134°58'.

Length 52 m; draft 3.8 m.

Type: Tanker. MMSI: 431001837.

Date/timePositionNaut miles runAvg speedWind from/ knotsBaromVisibWave heightAir tempDewpointWater temp
2016-Jul-29 07:32N 34°12' E 134°58'8 8.6
2016-Jul-29 06:33N 34°21' E 134°60'9 9.3
2016-Jul-29 05:33N 34°28' E 135°07'1010.3
2016-Jul-29 04:33N 34°35' E 135°16'9 9.5
2016-Jul-29 03:33N 34°42' E 135°24'0 0.0
2016-Jul-29 02:33N 34°42' E 135°24'0 0.0
2016-Jul-29 01:33N 34°42' E 135°24'0 0.0
2016-Jul-29 00:33N 34°42' E 135°24'0 0.0
2016-Jul-28 23:33N 34°42' E 135°24'0 0.0
2016-Jul-28 22:33N 34°42' E 135°24'4 4.1
2016-Jul-28 21:33N 34°41' E 135°19'6 5.6
2016-Jul-28 20:33N 34°41' E 135°12'0 0.0
2016-Jul-28 19:33N 34°41' E 135°12'0 0.0
2016-Jul-28 18:33N 34°41' E 135°12'0 0.0
2016-Jul-28 17:33N 34°41' E 135°12'0 0.0
2016-Jul-28 16:33N 34°41' E 135°12'0 0.0
2016-Jul-28 15:33N 34°41' E 135°12'0 0.0
2016-Jul-28 14:33N 34°41' E 135°12'0 0.0
2016-Jul-28 13:33N 34°41' E 135°12'0 0.0
2016-Jul-28 12:33N 34°41' E 135°12'0 0.0
2016-Jul-28 11:33N 34°41' E 135°12'0 0.0
2016-Jul-28 10:33N 34°41' E 135°12'0 0.0
2016-Jul-28 09:33N 34°41' E 135°12'0 0.0
2016-Jul-28 08:33N 34°41' E 135°12'0 0.0
2016-Jul-28 07:33N 34°41' E 135°12'0 0.0
2016-Jul-28 06:33N 34°41' E 135°12'0 0.0
2016-Jul-28 05:33N 34°41' E 135°12'1 0.9
2016-Jul-28 04:33N 34°40' E 135°12'2 2.3
2016-Jul-28 03:33N 34°39' E 135°10'0 0.0
2016-Jul-28 02:33N 34°39' E 135°10'0 0.0
2016-Jul-28 01:33N 34°39' E 135°10'0 0.0
2016-Jul-28 00:33N 34°39' E 135°10'0 0.0
2016-Jul-27 23:33N 34°39' E 135°10'3 3.0
2016-Jul-27 22:33N 34°41' E 135°12'0 0.0
2016-Jul-27 21:33N 34°41' E 135°12'0 0.0
2016-Jul-27 20:33N 34°41' E 135°12'0 0.0
2016-Jul-27 19:33N 34°41' E 135°12'0 0.0
2016-Jul-27 18:33N 34°41' E 135°12'0 0.0
2016-Jul-27 17:33N 34°41' E 135°12'0 0.0
2016-Jul-27 16:33N 34°41' E 135°12'0 0.0
2016-Jul-27 15:33N 34°41' E 135°12'0 0.0
2016-Jul-27 14:33N 34°41' E 135°12'0 0.0
2016-Jul-27 13:33N 34°41' E 135°12'0 0.0
2016-Jul-27 12:33N 34°41' E 135°12'0 0.0
2016-Jul-27 11:33N 34°41' E 135°12'0 0.0
2016-Jul-27 10:33N 34°41' E 135°12'0 0.0
2016-Jul-27 09:33N 34°41' E 135°12'0 0.0
2016-Jul-27 08:33N 34°41' E 135°12'0 0.0
2016-Jul-27 07:33N 34°41' E 135°12'1 1.1
2016-Jul-27 06:33N 34°41' E 135°14'1110.8
2016-Jul-27 05:33N 34°33' E 135°23'3 2.8
2016-Jul-27 04:33N 34°31' E 135°25'0 0.0
2016-Jul-27 03:33N 34°31' E 135°25'0 0.0
2016-Jul-27 02:33N 34°31' E 135°25'0 0.0
2016-Jul-27 01:33N 34°31' E 135°25'6 5.9
2016-Jul-27 00:33N 34°34' E 135°19'9 8.6
2016-Jul-26 23:33N 34°41' E 135°13'0 0.3
2016-Jul-26 22:33N 34°41' E 135°12'0 0.0
2016-Jul-26 21:33N 34°41' E 135°12'0 0.0
2016-Jul-26 20:33N 34°41' E 135°12'0 0.0
2016-Jul-26 19:33N 34°41' E 135°12'0 0.0
2016-Jul-26 18:33N 34°41' E 135°12'0 0.0
2016-Jul-26 17:33N 34°41' E 135°12'5 4.6
2016-Jul-26 16:33N 34°40' E 135°18'0 0.0
2016-Jul-26 15:33N 34°40' E 135°18'0 0.1
2016-Jul-26 14:33N 34°40' E 135°18'0 0.1
2016-Jul-26 13:33N 34°40' E 135°18'4 3.7
2016-Jul-26 12:33N 34°41' E 135°13'1 1.0
2016-Jul-26 11:33N 34°41' E 135°12'0 0.0
2016-Jul-26 10:33N 34°41' E 135°12'0 0.0
2016-Jul-26 09:33N 34°41' E 135°12'0 0.0
2016-Jul-26 08:33N 34°41' E 135°12'0 0.0
2016-Jul-26 07:33N 34°41' E 135°12'0 0.0
2016-Jul-26 06:33N 34°41' E 135°12'0 0.0
2016-Jul-26 05:33N 34°41' E 135°12'0 0.0
2016-Jul-26 04:33N 34°41' E 135°12'0 0.0
2016-Jul-26 03:33N 34°41' E 135°12'0 0.0
2016-Jul-26 02:33N 34°41' E 135°12'0 0.0
2016-Jul-26 01:33N 34°41' E 135°12'0 0.0
2016-Jul-26 00:33N 34°41' E 135°12'0 0.0
2016-Jul-25 23:33N 34°41' E 135°12'0 0.0
2016-Jul-25 22:33N 34°41' E 135°12'0 0.0
2016-Jul-25 21:33N 34°41' E 135°12'0 0.0
2016-Jul-25 20:33N 34°41' E 135°12'0 0.0
2016-Jul-25 19:33N 34°41' E 135°12'0 0.0
2016-Jul-25 18:33N 34°41' E 135°12'0 0.0
2016-Jul-25 17:33N 34°41' E 135°12'0 0.0
2016-Jul-25 16:33N 34°41' E 135°12'0 0.0
2016-Jul-25 15:33N 34°41' E 135°12'0 0.0
2016-Jul-25 14:33N 34°41' E 135°12'0 0.0
2016-Jul-25 13:33N 34°41' E 135°12'0 0.0
2016-Jul-25 12:33N 34°41' E 135°12'0 0.0
2016-Jul-25 11:33N 34°41' E 135°12'0 0.0
2016-Jul-25 10:33N 34°41' E 135°12'0 0.0
2016-Jul-25 09:33N 34°41' E 135°12'0 0.0
2016-Jul-25 08:33N 34°41' E 135°12'0 0.0
2016-Jul-25 07:33N 34°41' E 135°12'0 0.2
2016-Jul-25 06:33N 34°41' E 135°12'9 9.3
2016-Jul-25 05:33N 34°42' E 135°24'1 0.5
2016-Jul-25 04:33N 34°42' E 135°23'0 0.0
2016-Jul-25 03:33N 34°42' E 135°23'0 0.0
2016-Jul-25 02:33N 34°42' E 135°23'1 0.5
2016-Jul-25 01:32N 34°42' E 135°24'6 5.8
2016-Jul-25 00:33N 34°42' E 135°17'0 0.0
2016-Jul-24 23:33N 34°42' E 135°17'1 1.2
2016-Jul-24 22:33N 34°42' E 135°18'0 0.0
2016-Jul-24 21:33N 34°42' E 135°18'0 0.0
2016-Jul-24 20:33N 34°42' E 135°18'0 0.0
2016-Jul-24 19:33N 34°42' E 135°18'0 0.0
2016-Jul-24 18:33N 34°42' E 135°18'0 0.0
2016-Jul-24 17:33N 34°42' E 135°18'0 0.0
2016-Jul-24 16:33N 34°42' E 135°18'0 0.1
2016-Jul-24 15:33N 34°42' E 135°18'0 0.0
2016-Jul-24 14:33N 34°42' E 135°18'0 0.0
2016-Jul-24 13:33N 34°42' E 135°18'0 0.0
2016-Jul-24 12:33N 34°42' E 135°18'2 1.8
2016-Jul-24 11:33N 34°40' E 135°19'1010.1
2016-Jul-24 10:33N 34°31' E 135°13'10 9.9
2016-Jul-24 09:33N 34°22' E 135°07'10 9.9
2016-Jul-24 08:33N 34°13' E 135°03'239 8.4
2016-Jul-23 04:09N 35°11' E 139°45'610.3
2016-Jul-23 03:33N 35°18' E 139°44'10 9.7
2016-Jul-23 02:33N 35°27' E 139°45'4 3.7
2016-Jul-23 01:33N 35°31' E 139°45'0 0.0
2016-Jul-23 00:33N 35°31' E 139°45'0 0.0
2016-Jul-22 23:33N 35°31' E 139°45'0 0.0
2016-Jul-22 22:33N 35°31' E 139°45'0 0.0
2016-Jul-22 21:33N 35°31' E 139°45'0 0.0
2016-Jul-22 20:33N 35°31' E 139°45'0 0.0
2016-Jul-22 19:33N 35°31' E 139°45'0 0.0
2016-Jul-22 18:33N 35°31' E 139°45'0 0.0
2016-Jul-22 17:33N 35°31' E 139°45'0 0.0
2016-Jul-22 16:33N 35°31' E 139°45'0 0.0
2016-Jul-22 15:33N 35°31' E 139°45'0 0.0
2016-Jul-22 14:33N 35°31' E 139°45'0 0.0
2016-Jul-22 13:33N 35°31' E 139°45'0 0.0
2016-Jul-22 12:33N 35°31' E 139°45'0 0.0
2016-Jul-22 11:33N 35°31' E 139°45'0 0.0
2016-Jul-22 10:33N 35°31' E 139°45'0 0.0
2016-Jul-22 09:33N 35°31' E 139°45'0 0.0
2016-Jul-22 08:33N 35°31' E 139°45'0 0.0
2016-Jul-22 07:33N 35°31' E 139°45'0 0.0
2016-Jul-22 05:33N 35°31' E 139°45'0 0.0
2016-Jul-22 04:33N 35°31' E 139°45'0 0.0
2016-Jul-22 03:33N 35°31' E 139°45'0 0.0
2016-Jul-22 02:33N 35°31' E 139°45'0 0.0
2016-Jul-22 01:33N 35°31' E 139°45'0 0.0
2016-Jul-22 00:33N 35°31' E 139°45'0 0.0
2016-Jul-21 23:33N 35°31' E 139°45'0 0.0
2016-Jul-21 22:33N 35°31' E 139°45'0 0.0
2016-Jul-21 21:33N 35°31' E 139°45'0 0.0
2016-Jul-21 20:33N 35°31' E 139°45'0 0.0
2016-Jul-21 19:33N 35°31' E 139°45'0 0.0
2016-Jul-21 18:33N 35°31' E 139°45'0 0.0
2016-Jul-21 17:33N 35°31' E 139°45'0 0.0
2016-Jul-21 16:33N 35°31' E 139°45'0 0.0
2016-Jul-21 15:33N 35°31' E 139°45'0 0.0
2016-Jul-21 14:33N 35°31' E 139°45'0 0.0
2016-Jul-21 13:33N 35°31' E 139°45'0 0.0
2016-Jul-21 12:33N 35°31' E 139°45'0 0.0
2016-Jul-21 11:33N 35°31' E 139°45'0 0.0
2016-Jul-21 10:33N 35°31' E 139°45'0 0.0
2016-Jul-21 09:33N 35°31' E 139°45'0 0.0
2016-Jul-21 08:33N 35°31' E 139°45'0 0.0
2016-Jul-21 07:33N 35°31' E 139°45'0 0.0
2016-Jul-21 06:33N 35°31' E 139°45'0 0.0
2016-Jul-21 05:33N 35°31' E 139°45'0 0.0
2016-Jul-21 04:33N 35°31' E 139°45'0 0.0
2016-Jul-21 03:33N 35°31' E 139°45'0 0.0
2016-Jul-21 02:33N 35°31' E 139°45'0 0.0
2016-Jul-21 01:33N 35°31' E 139°45'0 0.0
2016-Jul-21 00:33N 35°31' E 139°45'0 0.0
2016-Jul-20 23:33N 35°31' E 139°45'0 0.0
2016-Jul-20 22:33N 35°31' E 139°45'0 0.0
2016-Jul-20 21:33N 35°31' E 139°45'5 4.5
2016-Jul-20 20:33N 35°30' E 139°50'0 0.1
2016-Jul-20 19:33N 35°30' E 139°50'0 0.0
2016-Jul-20 18:33N 35°30' E 139°50'0 0.0
2016-Jul-20 17:33N 35°30' E 139°50'0 0.0
2016-Jul-20 16:33N 35°30' E 139°50'0 0.0
2016-Jul-20 15:33N 35°30' E 139°50'0 0.0
2016-Jul-20 14:33N 35°30' E 139°50'2 2.5
2016-Jul-20 13:33N 35°28' E 139°49'1010.5
2016-Jul-20 12:34N 35°19' E 139°44'1010.1
2016-Jul-20 11:33N 35°09' E 139°46'242 9.2
2016-Jul-19 09:09N 34°03' E 135°03'610.6
2016-Jul-19 08:33N 34°09' E 135°03'  

Dump ship's entire track history